createdAt,value
2023-02-23T00:04:26.466Z,11.43
2023-02-23T00:06:53.867Z,11.27
2023-02-23T00:09:28.074Z,11.50
2023-02-23T00:11:57.445Z,11.63
2023-02-23T00:14:28.306Z,11.23
2023-02-23T00:16:56.403Z,11.53
2023-02-23T00:19:25.125Z,11.47
2023-02-23T00:21:53.127Z,11.73
2023-02-23T00:24:20.043Z,11.83
2023-02-23T00:26:48.230Z,11.73
2023-02-23T00:29:17.576Z,11.60
2023-02-23T00:31:45.689Z,10.63
2023-02-23T00:34:14.665Z,11.97
2023-02-23T00:36:43.052Z,10.97
2023-02-23T00:39:21.691Z,11.47
2023-02-23T00:41:49.449Z,11.57
2023-02-23T00:44:16.625Z,11.63
2023-02-23T00:46:44.826Z,12.03
2023-02-23T00:49:13.576Z,11.67
2023-02-23T00:51:40.373Z,11.77
2023-02-23T00:54:08.017Z,11.40
2023-02-23T00:56:34.922Z,11.87
2023-02-23T00:59:01.554Z,11.60
2023-02-23T01:01:28.274Z,11.93
2023-02-23T01:03:54.930Z,11.87
2023-02-23T01:09:05.150Z,13.20
2023-02-23T01:11:31.740Z,12.07
2023-02-23T01:14:00.705Z,12.23
2023-02-23T01:16:30.296Z,11.77
2023-02-23T01:19:00.016Z,11.83
2023-02-23T01:21:32.666Z,11.80
2023-02-23T01:23:59.578Z,11.87
2023-02-23T01:26:29.489Z,11.77
2023-02-23T01:28:58.464Z,11.43
2023-02-23T01:31:25.795Z,11.40
2023-02-23T01:33:59.878Z,11.40
2023-02-23T01:36:29.101Z,10.63
2023-02-23T01:38:57.186Z,11.17
2023-02-23T01:41:26.965Z,11.77
2023-02-23T01:44:01.319Z,12.00
2023-02-23T01:46:30.767Z,11.23
2023-02-23T01:48:57.700Z,11.73
2023-02-23T01:51:30.350Z,11.77
2023-02-23T01:54:02.476Z,12.07
2023-02-23T01:56:33.080Z,13.33
2023-02-23T01:59:05.853Z,13.03
2023-02-23T02:01:32.526Z,11.37
2023-02-23T02:04:06.846Z,12.20
2023-02-23T02:06:35.983Z,12.03
2023-02-23T02:09:10.407Z,12.23
2023-02-23T02:11:37.536Z,11.50
2023-02-23T02:14:13.194Z,11.33
2023-02-23T02:16:45.062Z,11.50
2023-02-23T02:19:18.802Z,11.90
2023-02-23T02:21:48.312Z,11.73
2023-02-23T02:24:52.520Z,11.77
2023-02-23T02:27:29.486Z,11.33
2023-02-23T02:30:05.544Z,11.63
2023-02-23T02:32:47.740Z,10.57
2023-02-23T02:35:41.758Z,11.97
2023-02-23T02:38:29.804Z,11.70
2023-02-23T02:41:13.726Z,12.60
2023-02-23T02:43:51.056Z,12.17
2023-02-23T02:46:25.064Z,12.27
2023-02-23T02:49:04.069Z,13.03
2023-02-23T02:51:49.243Z,12.50
2023-02-23T02:54:31.991Z,13.53
2023-02-23T02:57:02.312Z,12.10
2023-02-23T02:59:47.415Z,12.83
2023-02-23T03:02:35.670Z,13.37
2023-02-23T03:05:21.079Z,12.83
2023-02-23T03:08:16.366Z,13.10
2023-02-23T03:11:31.625Z,14.30
2023-02-23T03:14:54.374Z,14.03
2023-02-23T03:18:04.397Z,14.40
2023-02-23T03:20:52.675Z,13.53
2023-02-23T03:24:03.066Z,14.40
2023-02-23T03:26:59.595Z,13.53
2023-02-23T03:30:18.289Z,13.50
2023-02-23T03:33:09.512Z,12.87
2023-02-23T03:36:13.889Z,13.03
2023-02-23T03:39:03.022Z,13.00
2023-02-23T03:41:52.196Z,13.20
2023-02-23T03:44:44.154Z,13.20
2023-02-23T03:47:31.482Z,13.30
2023-02-23T03:50:19.771Z,12.47
2023-02-23T03:53:11.223Z,12.27
2023-02-23T03:55:59.387Z,12.23
2023-02-23T03:58:55.905Z,12.57
2023-02-23T04:01:44.270Z,12.13
2023-02-23T04:04:30.046Z,12.53
2023-02-23T04:07:18.086Z,12.60
2023-02-23T04:10:03.458Z,12.50
2023-02-23T04:13:03.587Z,12.60
2023-02-23T04:15:39.216Z,12.83
2023-02-23T04:18:08.197Z,11.87
2023-02-23T04:20:35.358Z,12.93
2023-02-23T04:23:02.157Z,12.47
2023-02-23T04:28:03.635Z,12.90
2023-02-23T04:30:30.453Z,13.00
2023-02-23T04:32:58.766Z,15.20
2023-02-23T04:35:27.893Z,13.07
2023-02-23T04:37:54.983Z,12.20
2023-02-23T04:40:24.194Z,11.87
2023-02-23T04:42:51.213Z,12.17
2023-02-23T04:45:17.768Z,12.37
2023-02-23T04:47:44.855Z,13.07
2023-02-23T04:50:12.914Z,11.93
2023-02-23T04:52:39.817Z,12.60
2023-02-23T04:55:09.088Z,12.47
2023-02-23T04:57:35.812Z,12.87
2023-02-23T05:00:04.479Z,12.07
2023-02-23T05:02:32.155Z,12.00
2023-02-23T05:04:58.805Z,11.70
2023-02-23T05:07:25.509Z,12.27
2023-02-23T05:09:52.105Z,12.17
2023-02-23T05:12:18.663Z,12.20
2023-02-23T05:14:45.185Z,11.97
2023-02-23T05:17:11.696Z,12.30
2023-02-23T05:19:38.273Z,11.87
2023-02-23T05:22:04.809Z,11.80
2023-02-23T05:24:31.409Z,11.93
2023-02-23T05:26:58.960Z,13.20
2023-02-23T05:29:25.528Z,12.23
2023-02-23T05:31:52.171Z,11.47
2023-02-23T05:34:18.834Z,11.63
2023-02-23T05:36:45.367Z,12.07
2023-02-23T05:39:11.899Z,12.63
2023-02-23T05:41:38.448Z,12.47
2023-02-23T05:44:05.181Z,13.27
2023-02-23T05:46:31.945Z,11.97
2023-02-23T05:49:00.905Z,12.37
2023-02-23T05:51:30.114Z,12.03
2023-02-23T05:53:56.644Z,13.87
2023-02-23T05:56:23.561Z,12.63
2023-02-23T05:58:52.064Z,11.50
2023-02-23T06:01:19.455Z,12.30
2023-02-23T06:03:47.201Z,12.70
2023-02-23T06:06:14.325Z,12.93
2023-02-23T06:08:41.305Z,13.03
2023-02-23T06:11:08.214Z,12.53
2023-02-23T06:13:34.948Z,13.10
2023-02-23T06:16:02.001Z,13.33
2023-02-23T06:18:29.444Z,13.50
2023-02-23T06:20:59.490Z,12.13
2023-02-23T06:23:26.098Z,12.63
2023-02-23T06:25:52.614Z,12.73
2023-02-23T06:28:19.160Z,11.80
2023-02-23T06:30:46.812Z,12.00
2023-02-23T06:33:13.438Z,12.17
2023-02-23T06:35:40.080Z,12.60
2023-02-23T06:38:06.832Z,12.17
2023-02-23T06:40:33.648Z,12.30
2023-02-23T06:43:00.666Z,12.63
2023-02-23T06:45:27.187Z,12.70
2023-02-23T06:47:53.945Z,12.07
2023-02-23T06:50:20.722Z,11.50
2023-02-23T06:52:47.349Z,11.63
2023-02-23T06:55:14.712Z,11.83
2023-02-23T06:57:41.667Z,11.87
2023-02-23T07:00:15.268Z,12.00
2023-02-23T07:02:42.149Z,11.97
2023-02-23T07:05:09.215Z,11.50
2023-02-23T07:07:36.122Z,12.53
2023-02-23T07:10:02.878Z,12.20
2023-02-23T07:12:30.297Z,11.60
2023-02-23T07:14:57.008Z,11.73
2023-02-23T07:17:24.059Z,11.63
2023-02-23T07:19:50.563Z,11.97
2023-02-23T07:22:17.086Z,11.50
2023-02-23T07:24:43.677Z,11.50
2023-02-23T07:27:10.190Z,12.40
2023-02-23T07:29:36.755Z,11.70
2023-02-23T07:32:03.552Z,12.53
2023-02-23T07:34:30.125Z,11.53
2023-02-23T07:36:56.750Z,11.40
2023-02-23T07:39:23.265Z,11.77
2023-02-23T07:44:23.088Z,11.83
2023-02-23T07:49:22.942Z,13.33
2023-02-23T07:54:21.999Z,13.17
2023-02-23T07:56:48.515Z,13.97
2023-02-23T07:59:15.406Z,13.73
2023-02-23T08:01:41.923Z,12.53
2023-02-23T08:04:08.724Z,12.13
2023-02-23T08:06:35.339Z,11.93
2023-02-23T08:09:04.038Z,11.60
2023-02-23T08:11:31.089Z,12.47
2023-02-23T08:14:00.363Z,12.50
2023-02-23T08:16:32.438Z,12.10
2023-02-23T08:19:01.028Z,12.80
2023-02-23T08:21:29.638Z,12.93
2023-02-23T08:26:31.027Z,12.77
2023-02-23T08:31:36.061Z,13.43
2023-02-23T08:34:02.835Z,13.47
2023-02-23T08:39:00.865Z,13.77
2023-02-23T08:41:27.802Z,13.87
2023-02-23T08:43:54.462Z,12.63
2023-02-23T08:46:21.018Z,12.80
2023-02-23T08:48:47.581Z,11.70
2023-02-23T08:51:17.328Z,10.97
2023-02-23T08:53:43.945Z,11.67
2023-02-23T08:56:11.485Z,10.73
2023-02-23T08:58:38.002Z,11.80
2023-02-23T09:01:05.695Z,10.07
2023-02-23T09:03:35.833Z,10.17
2023-02-23T09:06:12.838Z,10.27
2023-02-23T09:08:39.726Z,9.53
2023-02-23T09:11:06.639Z,10.07
2023-02-23T09:13:33.313Z,9.67
2023-02-23T09:15:59.848Z,9.47
2023-02-23T09:18:28.042Z,9.57
2023-02-23T09:20:54.577Z,9.93
2023-02-23T09:23:21.293Z,9.13
2023-02-23T09:25:47.791Z,9.53
2023-02-23T09:28:16.320Z,9.50
2023-02-23T09:30:44.668Z,9.47
2023-02-23T09:33:12.209Z,9.63
2023-02-23T09:35:39.868Z,9.30
2023-02-23T09:40:53.214Z,8.30
2023-02-23T09:43:45.234Z,8.53
2023-02-23T09:46:34.092Z,8.40
2023-02-23T09:49:03.935Z,8.27
2023-02-23T09:51:37.766Z,8.03
2023-02-23T09:54:06.175Z,7.00
2023-02-23T09:56:37.391Z,7.57
2023-02-23T09:59:12.210Z,7.87
2023-02-23T10:01:47.756Z,7.90
2023-02-23T10:04:25.978Z,8.60
2023-02-23T10:07:21.221Z,7.90
2023-02-23T10:10:00.275Z,8.43
2023-02-23T10:12:50.383Z,7.50
2023-02-23T10:15:45.587Z,6.90
2023-02-23T10:18:21.622Z,6.90
2023-02-23T10:21:04.844Z,7.07
2023-02-23T10:23:42.836Z,6.97
2023-02-23T10:26:16.325Z,6.90
2023-02-23T10:28:45.422Z,6.43
2023-02-23T10:31:27.818Z,6.87
2023-02-23T10:33:58.727Z,6.23
2023-02-23T10:36:37.798Z,6.30
2023-02-23T10:39:07.681Z,6.60
2023-02-23T10:41:37.054Z,6.23
2023-02-23T10:46:40.469Z,6.00
2023-02-23T10:49:14.257Z,6.27
2023-02-23T10:51:43.216Z,6.27
2023-02-23T10:54:36.854Z,7.03
2023-02-23T10:57:05.759Z,6.93
2023-02-23T10:59:33.196Z,6.43
2023-02-23T11:02:02.603Z,6.03
2023-02-23T11:04:35.140Z,6.23
2023-02-23T11:07:21.656Z,5.70
2023-02-23T11:09:49.578Z,6.00
2023-02-23T11:12:29.757Z,5.63
2023-02-23T11:14:57.679Z,6.07
2023-02-23T11:17:34.937Z,5.87
2023-02-23T11:20:07.533Z,4.80
2023-02-23T11:25:31.804Z,4.83
2023-02-23T11:27:59.344Z,4.90
2023-02-23T11:30:37.292Z,4.80
2023-02-23T11:33:12.166Z,4.80
2023-02-23T11:35:38.980Z,4.70
2023-02-23T11:38:22.430Z,4.10
2023-02-23T11:41:21.359Z,4.43
2023-02-23T11:46:32.918Z,3.87
2023-02-23T11:49:22.747Z,4.10
2023-02-23T11:51:50.878Z,3.87
2023-02-23T11:54:33.472Z,3.60
2023-02-23T11:57:02.808Z,3.30
2023-02-23T11:59:35.174Z,3.40
2023-02-23T12:02:26.759Z,3.30
2023-02-23T12:05:06.688Z,3.40
2023-02-23T12:07:44.609Z,3.90
2023-02-23T12:10:20.188Z,4.10
2023-02-23T12:15:40.650Z,3.13
2023-02-23T12:21:00.693Z,4.07
2023-02-23T12:23:33.663Z,3.87
2023-02-23T12:26:09.473Z,3.10
2023-02-23T12:29:18.209Z,3.50
2023-02-23T12:31:50.091Z,3.27
2023-02-23T12:34:27.130Z,3.13
2023-02-23T12:37:07.605Z,3.60
2023-02-23T12:39:43.302Z,3.10
2023-02-23T12:42:38.701Z,3.43
2023-02-23T12:45:13.549Z,3.50
2023-02-23T12:48:01.127Z,2.80
2023-02-23T12:50:35.712Z,3.70
2023-02-23T12:53:17.163Z,3.03
2023-02-23T12:55:53.795Z,3.50
2023-02-23T12:58:38.276Z,3.73
2023-02-23T13:01:10.949Z,3.23
2023-02-23T13:03:49.390Z,3.40
2023-02-23T13:06:35.430Z,3.50
2023-02-23T13:09:43.473Z,3.70
2023-02-23T13:12:12.925Z,4.37
2023-02-23T13:23:06.526Z,3.80
2023-02-23T13:25:41.882Z,4.20
2023-02-23T13:28:17.920Z,3.87
2023-02-23T13:30:47.716Z,4.00
2023-02-23T13:33:41.865Z,4.17
2023-02-23T13:36:13.010Z,3.93
2023-02-23T13:38:55.684Z,3.63
2023-02-23T13:41:36.309Z,4.13
2023-02-23T13:44:26.884Z,3.87
2023-02-23T13:46:56.390Z,4.47
2023-02-23T13:49:31.738Z,4.23
2023-02-23T13:52:09.030Z,4.47
2023-02-23T13:54:36.788Z,4.30
2023-02-23T13:57:12.484Z,4.30
2023-02-23T13:59:43.700Z,3.70
2023-02-23T14:02:34.808Z,4.03
2023-02-23T14:05:27.862Z,4.00
2023-02-23T14:08:02.566Z,4.87
2023-02-23T14:10:38.632Z,4.57
2023-02-23T14:13:05.172Z,3.30
2023-02-23T14:15:31.860Z,3.03
2023-02-23T14:18:22.635Z,3.17
2023-02-23T14:21:09.634Z,3.33
2023-02-23T14:24:03.353Z,3.87
2023-02-23T14:26:29.858Z,4.00
2023-02-23T14:29:15.053Z,4.00
2023-02-23T14:31:54.832Z,3.83
2023-02-23T14:34:24.404Z,3.63
2023-02-23T14:36:56.645Z,3.80
2023-02-23T14:39:26.125Z,3.87
2023-02-23T14:41:59.076Z,3.83
2023-02-23T14:44:36.477Z,4.03
2023-02-23T14:49:54.949Z,3.80
2023-02-23T14:52:25.068Z,3.33
2023-02-23T14:54:52.711Z,3.43
2023-02-23T14:57:25.488Z,3.70
2023-02-23T14:59:59.650Z,3.50
2023-02-23T15:02:28.720Z,3.50
2023-02-23T15:04:56.349Z,3.70
2023-02-23T15:07:38.360Z,3.47
2023-02-23T15:10:12.652Z,3.47
2023-02-23T15:12:39.456Z,3.50
2023-02-23T15:15:17.528Z,4.23
2023-02-23T15:17:47.788Z,4.03
2023-02-23T15:20:18.549Z,3.63
2023-02-23T15:22:53.854Z,3.43
2023-02-23T15:25:41.169Z,3.60
2023-02-23T15:28:34.562Z,3.70
2023-02-23T15:31:02.743Z,3.87
2023-02-23T15:33:29.375Z,3.63
2023-02-23T15:36:15.485Z,3.57
2023-02-23T15:38:49.620Z,3.80
2023-02-23T15:41:29.895Z,4.20
2023-02-23T15:46:41.619Z,3.87
2023-02-23T15:49:12.599Z,4.10
2023-02-23T15:54:26.086Z,3.70
2023-02-23T15:56:57.804Z,4.00
2023-02-23T15:59:30.975Z,3.87
2023-02-23T16:02:00.337Z,4.27
2023-02-23T16:04:32.729Z,3.67
2023-02-23T16:07:16.467Z,3.83
2023-02-23T16:09:51.581Z,3.60
2023-02-23T16:12:22.204Z,3.97
2023-02-23T16:14:55.732Z,3.80
2023-02-23T16:17:28.438Z,3.73
2023-02-23T16:20:11.329Z,4.47
2023-02-23T16:22:40.052Z,4.20
2023-02-23T16:25:12.553Z,5.47
2023-02-23T16:27:39.480Z,4.57
2023-02-23T16:30:34.282Z,4.60
2023-02-23T16:33:05.853Z,4.23
2023-02-23T16:35:39.612Z,4.10
2023-02-23T16:38:22.547Z,4.33
2023-02-23T16:40:49.176Z,4.13
2023-02-23T16:43:15.899Z,4.57
2023-02-23T16:45:43.805Z,4.53
2023-02-23T16:48:15.322Z,4.67
2023-02-23T16:50:42.609Z,5.17
2023-02-23T16:53:11.377Z,4.80
2023-02-23T16:55:40.982Z,4.70
2023-02-23T16:58:15.290Z,4.77
2023-02-23T17:00:43.567Z,4.90
2023-02-23T17:03:30.420Z,4.90
2023-02-23T17:05:57.188Z,5.40
2023-02-23T17:08:24.566Z,5.57
2023-02-23T17:10:54.354Z,5.20
2023-02-23T17:13:26.415Z,5.37
2023-02-23T17:15:56.301Z,5.40
2023-02-23T17:21:14.476Z,5.90
2023-02-23T17:23:51.316Z,6.10
2023-02-23T17:26:21.173Z,5.70
2023-02-23T17:28:48.555Z,6.60
2023-02-23T17:31:17.446Z,6.90
2023-02-23T17:33:45.392Z,6.10
2023-02-23T17:36:14.513Z,5.97
2023-02-23T17:38:44.668Z,5.50
2023-02-23T17:41:16.784Z,6.27
2023-02-23T17:43:43.671Z,6.03
2023-02-23T17:46:10.679Z,5.37
2023-02-23T17:51:10.275Z,5.13
2023-02-23T17:53:37.032Z,6.20
2023-02-23T17:56:04.460Z,5.43
2023-02-23T17:58:31.153Z,6.23
2023-02-23T18:00:59.833Z,6.00
2023-02-23T18:03:32.179Z,6.30
2023-02-23T18:06:04.238Z,6.27
2023-02-23T18:08:31.234Z,6.27
2023-02-23T18:10:58.494Z,6.20
2023-02-23T18:13:26.527Z,7.00
2023-02-23T18:15:55.894Z,6.80
2023-02-23T18:18:24.185Z,6.37
2023-02-23T18:21:00.502Z,6.77
2023-02-23T18:23:36.002Z,6.53
2023-02-23T18:26:14.709Z,6.57
2023-02-23T18:28:44.454Z,7.40
2023-02-23T18:31:15.792Z,7.03
2023-02-23T18:33:42.708Z,6.57
2023-02-23T18:36:17.782Z,7.40
2023-02-23T18:38:44.506Z,7.33
2023-02-23T18:41:11.817Z,7.43
2023-02-23T18:43:38.501Z,7.63
2023-02-23T18:46:07.308Z,7.23
2023-02-23T18:48:34.021Z,7.63
2023-02-23T18:51:00.547Z,7.20
2023-02-23T18:53:27.597Z,6.97
2023-02-23T18:58:27.829Z,7.13
2023-02-23T19:00:55.202Z,7.97
2023-02-23T19:03:21.846Z,8.03
2023-02-23T19:05:53.061Z,8.30
2023-02-23T19:08:20.691Z,7.70
2023-02-23T19:10:48.552Z,7.93
2023-02-23T19:13:15.407Z,8.30
2023-02-23T19:15:43.797Z,8.23
2023-02-23T19:18:10.381Z,7.50
2023-02-23T19:23:10.091Z,7.77
2023-02-23T19:25:36.671Z,7.87
2023-02-23T19:28:03.179Z,8.50
2023-02-23T19:30:29.739Z,7.97
2023-02-23T19:32:57.290Z,8.07
2023-02-23T19:35:25.115Z,8.20
2023-02-23T19:37:52.950Z,8.30
2023-02-23T19:40:22.806Z,8.50
2023-02-23T19:42:51.206Z,8.87
2023-02-23T19:45:18.374Z,8.60
2023-02-23T19:47:45.118Z,8.63
2023-02-23T19:50:13.296Z,8.73
2023-02-23T19:52:39.898Z,8.83
2023-02-23T19:57:38.960Z,8.87
2023-02-23T20:00:11.695Z,8.27
2023-02-23T20:02:42.800Z,9.23
2023-02-23T20:05:13.714Z,9.50
2023-02-23T20:07:40.375Z,9.47
2023-02-23T20:10:08.501Z,10.33
2023-02-23T20:12:36.010Z,10.27
2023-02-23T20:15:03.426Z,10.53
2023-02-23T20:17:30.002Z,10.10
2023-02-23T20:19:56.585Z,10.40
2023-02-23T20:22:23.740Z,9.87
2023-02-23T20:24:50.295Z,9.97
2023-02-23T20:27:16.863Z,10.10
2023-02-23T20:29:44.296Z,9.83
2023-02-23T20:32:11.058Z,10.20
2023-02-23T20:34:39.279Z,10.60
2023-02-23T20:37:05.790Z,13.27
2023-02-23T20:39:32.484Z,12.20
2023-02-23T20:41:59.086Z,11.00
2023-02-23T20:44:26.082Z,11.90
2023-02-23T20:46:52.666Z,11.90
2023-02-23T20:49:19.272Z,12.00
2023-02-23T20:51:48.592Z,12.37
2023-02-23T20:54:16.037Z,11.50
2023-02-23T20:56:43.545Z,11.30
2023-02-23T20:59:13.407Z,11.23
2023-02-23T21:01:41.648Z,11.40
2023-02-23T21:04:08.923Z,11.43
2023-02-23T21:06:35.700Z,10.83
2023-02-23T21:09:17.164Z,9.60
2023-02-23T21:11:48.182Z,9.93
2023-02-23T21:14:15.587Z,10.10
2023-02-23T21:16:46.554Z,9.67
2023-02-23T21:19:14.418Z,10.37
2023-02-23T21:21:46.498Z,9.67
2023-02-23T21:24:15.108Z,10.00
2023-02-23T21:26:42.602Z,10.43
2023-02-23T21:29:11.878Z,10.47
2023-02-23T21:34:19.228Z,10.83
2023-02-23T21:36:46.569Z,10.27
2023-02-23T21:39:13.110Z,11.60
2023-02-23T21:41:39.719Z,10.93
2023-02-23T21:44:08.182Z,11.50
2023-02-23T21:46:34.946Z,11.30
2023-02-23T21:49:07.377Z,10.67
2023-02-23T21:51:34.827Z,10.33
2023-02-23T21:54:01.412Z,11.87
2023-02-23T21:59:02.694Z,11.80
2023-02-23T22:01:36.637Z,11.20
2023-02-23T22:04:05.281Z,11.43
2023-02-23T22:06:38.400Z,11.27
2023-02-23T22:11:42.584Z,11.03
2023-02-23T22:14:11.323Z,11.60
2023-02-23T22:16:39.914Z,10.80
2023-02-23T22:19:07.157Z,10.83
2023-02-23T22:21:37.478Z,10.30
2023-02-23T22:24:05.593Z,10.33
2023-02-23T22:26:34.591Z,10.90
2023-02-23T22:29:01.285Z,11.40
2023-02-23T22:33:59.761Z,11.60
2023-02-23T22:36:26.331Z,11.70
2023-02-23T22:38:52.893Z,11.23
2023-02-23T22:41:19.744Z,11.87
2023-02-23T22:43:47.183Z,10.67
2023-02-23T22:46:15.496Z,11.37
2023-02-23T22:48:45.084Z,10.87
2023-02-23T22:51:13.689Z,11.97
2023-02-23T22:53:40.583Z,11.27
2023-02-23T22:56:08.528Z,11.20
2023-02-23T22:58:36.362Z,11.20
2023-02-23T23:01:06.132Z,12.13
2023-02-23T23:03:47.667Z,11.70
2023-02-23T23:06:16.843Z,11.20
2023-02-23T23:08:45.613Z,11.93
2023-02-23T23:11:18.865Z,11.80
2023-02-23T23:13:48.573Z,10.83
2023-02-23T23:16:30.594Z,11.77
2023-02-23T23:19:12.202Z,11.63
2023-02-23T23:21:40.909Z,12.73
2023-02-23T23:24:08.083Z,12.50
2023-02-23T23:26:39.722Z,11.20
2023-02-23T23:29:10.340Z,12.57
2023-02-23T23:34:22.299Z,11.43
2023-02-23T23:36:49.930Z,12.37
2023-02-23T23:39:20.461Z,11.40
2023-02-23T23:41:50.803Z,11.27
2023-02-23T23:44:20.062Z,12.40
2023-02-23T23:49:26.003Z,12.60
2023-02-23T23:51:56.398Z,11.60
2023-02-23T23:54:31.111Z,13.23
2023-02-23T23:57:01.584Z,12.53
